createdAt,value
2022-09-07T00:02:36.827Z,17.27
2022-09-07T00:07:39.663Z,17.17
2022-09-07T00:12:42.803Z,17.19
2022-09-07T00:17:46.916Z,17.20
2022-09-07T00:22:49.637Z,17.18
2022-09-07T00:27:52.381Z,17.18
2022-09-07T00:32:56.451Z,17.09
2022-09-07T00:37:59.245Z,17.11
2022-09-07T00:43:02.085Z,17.11
2022-09-07T00:48:10.026Z,17.07
2022-09-07T00:53:15.775Z,17.03
2022-09-07T00:58:18.883Z,16.97
2022-09-07T01:03:25.828Z,16.88
2022-09-07T01:08:29.841Z,16.80
2022-09-07T01:13:33.171Z,16.80
2022-09-07T01:18:42.551Z,16.77
2022-09-07T01:24:14.234Z,16.74
2022-09-07T01:29:21.718Z,16.77
2022-09-07T01:34:26.430Z,16.81
2022-09-07T01:39:35.590Z,16.81
2022-09-07T01:44:41.321Z,16.82
2022-09-07T01:49:48.956Z,16.82
2022-09-07T01:54:53.935Z,16.76
2022-09-07T02:00:02.498Z,16.73
2022-09-07T02:05:18.622Z,16.61
2022-09-07T02:10:25.747Z,16.48
2022-09-07T02:15:34.243Z,16.48
2022-09-07T02:20:38.981Z,16.54
2022-09-07T02:25:44.508Z,16.51
2022-09-07T02:30:49.006Z,16.54
2022-09-07T02:35:52.289Z,16.54
2022-09-07T02:40:56.406Z,16.50
2022-09-07T02:46:16.058Z,16.51
2022-09-07T02:51:24.176Z,16.55
2022-09-07T02:56:36.026Z,16.54
2022-09-07T03:01:48.648Z,16.61
2022-09-07T03:06:54.434Z,16.64
2022-09-07T03:11:57.379Z,16.62
2022-09-07T03:17:02.245Z,16.62
2022-09-07T03:22:05.341Z,16.62
2022-09-07T03:27:08.087Z,16.61
2022-09-07T03:32:12.359Z,16.63
2022-09-07T03:37:15.212Z,16.67
2022-09-07T03:42:17.997Z,16.66
2022-09-07T03:47:22.128Z,16.69
2022-09-07T03:52:24.857Z,16.74
2022-09-07T03:57:27.687Z,16.76
2022-09-07T04:02:31.893Z,16.71
2022-09-07T04:07:34.744Z,16.72
2022-09-07T04:12:37.767Z,16.69
2022-09-07T04:17:41.801Z,16.64
2022-09-07T04:22:44.661Z,16.59
2022-09-07T04:27:47.457Z,16.59
2022-09-07T04:32:51.627Z,16.57
2022-09-07T04:37:54.371Z,16.54
2022-09-07T04:42:57.104Z,16.57
2022-09-07T04:48:01.201Z,16.66
2022-09-07T04:53:04.038Z,16.69
2022-09-07T04:58:06.835Z,16.70
2022-09-07T05:03:10.958Z,16.78
2022-09-07T05:08:13.697Z,16.88
2022-09-07T05:13:16.676Z,16.92
2022-09-07T05:18:21.256Z,16.92
2022-09-07T05:23:24.368Z,16.87
2022-09-07T05:28:27.320Z,16.88
2022-09-07T05:38:54.318Z,17.00
2022-09-07T05:49:21.628Z,17.20
2022-09-07T05:54:24.459Z,17.27
2022-09-07T05:59:27.247Z,17.38
2022-09-07T06:04:31.327Z,17.48
2022-09-07T06:09:34.143Z,17.54
2022-09-07T06:14:36.995Z,17.64
2022-09-07T06:19:41.075Z,17.77
2022-09-07T06:24:44.119Z,17.89
2022-09-07T06:29:46.901Z,18.02
2022-09-07T06:34:51.031Z,18.10
2022-09-07T06:39:53.814Z,18.14
2022-09-07T06:44:57.300Z,18.21
2022-09-07T06:50:01.518Z,18.28
2022-09-07T06:55:04.964Z,18.34
2022-09-07T07:00:08.893Z,18.42
2022-09-07T07:05:13.140Z,18.57
2022-09-07T07:10:17.837Z,18.78
2022-09-07T07:15:22.779Z,18.96
2022-09-07T07:20:26.941Z,19.15
2022-09-07T07:25:29.973Z,19.27
2022-09-07T07:30:32.979Z,19.51
2022-09-07T07:35:37.055Z,19.75
2022-09-07T07:40:39.985Z,20.09
2022-09-07T07:51:09.876Z,20.43
2022-09-07T07:56:14.825Z,20.78
2022-09-07T08:01:18.535Z,21.26
2022-09-07T08:06:22.626Z,21.63
2022-09-07T08:11:25.871Z,21.86
2022-09-07T08:16:28.692Z,22.00
2022-09-07T08:21:32.729Z,22.06
2022-09-07T08:26:35.388Z,22.09
2022-09-07T08:31:38.172Z,22.06
2022-09-07T08:36:42.288Z,22.06
2022-09-07T08:41:58.902Z,21.94
2022-09-07T08:47:04.692Z,21.81
2022-09-07T08:52:12.601Z,21.76
2022-09-07T08:57:27.433Z,21.83
2022-09-07T09:06:10.906Z,21.83
2022-09-07T09:08:04.538Z,21.94
2022-09-07T09:13:16.022Z,22.13
2022-09-07T09:18:30.681Z,22.48
2022-09-07T09:23:38.208Z,22.85
2022-09-07T09:28:41.080Z,22.93
2022-09-07T09:33:43.743Z,22.91
2022-09-07T09:38:47.764Z,23.05
2022-09-07T09:43:54.157Z,23.31
2022-09-07T09:48:58.327Z,23.37
2022-09-07T09:54:05.901Z,23.39
2022-09-07T10:04:36.978Z,23.53
2022-09-07T10:09:42.502Z,23.63
2022-09-07T10:14:46.338Z,23.64
2022-09-07T10:19:49.561Z,23.88
2022-09-07T10:24:53.553Z,24.14
2022-09-07T10:29:56.418Z,24.17
2022-09-07T10:35:09.455Z,24.38
2022-09-07T10:40:22.875Z,24.60
2022-09-07T10:45:32.224Z,24.74
2022-09-07T10:50:42.202Z,24.81
2022-09-07T10:55:53.069Z,25.42
2022-09-07T11:01:06.669Z,25.81
2022-09-07T11:06:16.177Z,25.83
2022-09-07T11:12:00.805Z,26.09
2022-09-07T11:16:53.812Z,26.06
2022-09-07T11:22:00.867Z,26.10
2022-09-07T11:27:11.044Z,27.35
2022-09-07T11:32:18.566Z,28.14
2022-09-07T11:37:24.377Z,29.13
2022-09-07T11:42:48.551Z,28.03
2022-09-07T11:47:56.628Z,29.71
2022-09-07T11:53:01.318Z,30.51
2022-09-07T11:58:17.248Z,31.46
2022-09-07T12:03:38.011Z,31.83
2022-09-07T12:08:51.478Z,29.65
2022-09-07T12:14:08.168Z,30.70
2022-09-07T12:19:18.801Z,31.47
2022-09-07T12:24:40.331Z,29.69
2022-09-07T12:29:45.668Z,28.61
2022-09-07T12:34:53.833Z,28.86
2022-09-07T12:40:34.875Z,27.55
2022-09-07T12:45:53.013Z,26.66
2022-09-07T12:50:58.860Z,26.29
2022-09-07T12:56:19.186Z,27.16
2022-09-07T13:01:32.757Z,29.26
2022-09-07T13:07:05.588Z,30.07
2022-09-07T13:17:56.316Z,30.75
2022-09-07T13:23:26.722Z,30.91
2022-09-07T13:28:33.138Z,30.90
2022-09-07T13:33:52.636Z,31.15
2022-09-07T13:38:55.848Z,31.15
2022-09-07T13:44:00.725Z,31.19
2022-09-07T13:49:09.745Z,29.97
2022-09-07T13:54:18.969Z,28.70
2022-09-07T13:59:23.797Z,28.05
2022-09-07T14:04:30.794Z,28.05
2022-09-07T14:09:34.688Z,27.72
2022-09-07T14:14:37.319Z,27.36
2022-09-07T14:19:43.347Z,27.08
2022-09-07T14:24:49.449Z,27.01
2022-09-07T14:29:52.527Z,27.34
2022-09-07T14:34:56.631Z,27.29
2022-09-07T14:39:59.327Z,26.68
2022-09-07T14:45:19.011Z,26.32
2022-09-07T14:50:24.735Z,26.10
2022-09-07T14:55:30.424Z,25.87
2022-09-07T15:00:33.450Z,25.76
2022-09-07T15:05:48.571Z,27.35
2022-09-07T15:16:27.426Z,27.84
2022-09-07T15:21:32.855Z,26.87
2022-09-07T15:32:04.834Z,25.89
2022-09-07T15:47:56.331Z,25.14
2022-09-07T15:53:00.998Z,25.05
2022-09-07T15:58:11.586Z,25.00
2022-09-07T16:03:14.770Z,24.95
2022-09-07T16:08:26.121Z,24.83
2022-09-07T16:13:31.372Z,24.75
2022-09-07T16:18:35.155Z,24.69
2022-09-07T16:23:40.020Z,24.62
2022-09-07T16:28:44.687Z,24.49
2022-09-07T16:33:47.451Z,24.31
2022-09-07T16:38:55.851Z,24.32
2022-09-07T16:43:59.442Z,24.48
2022-09-07T16:49:02.076Z,24.38
2022-09-07T16:54:06.488Z,24.25
2022-09-07T16:59:10.216Z,24.22
2022-09-07T17:04:12.868Z,24.15
2022-09-07T17:09:16.905Z,24.07
2022-09-07T17:14:19.869Z,23.93
2022-09-07T17:19:30.468Z,23.74
2022-09-07T17:24:34.624Z,23.56
2022-09-07T17:29:37.727Z,23.46
2022-09-07T17:34:40.457Z,23.39
2022-09-07T17:39:44.878Z,23.34
2022-09-07T17:44:52.799Z,23.30
2022-09-07T17:49:55.681Z,23.21
2022-09-07T17:55:01.324Z,23.11
2022-09-07T18:00:11.750Z,23.02
2022-09-07T18:05:15.105Z,22.93
2022-09-07T18:10:19.258Z,22.85
2022-09-07T18:15:22.144Z,22.80
2022-09-07T18:20:24.947Z,22.74
2022-09-07T18:25:29.334Z,22.67
2022-09-07T18:30:32.568Z,22.59
2022-09-07T18:40:40.068Z,22.56
2022-09-07T18:45:42.877Z,22.57
2022-09-07T18:50:45.603Z,22.54
2022-09-07T18:55:50.747Z,22.49
2022-09-07T19:00:58.002Z,22.43
2022-09-07T19:06:03.620Z,22.37
2022-09-07T19:11:09.133Z,22.33
2022-09-07T19:16:13.945Z,22.30
2022-09-07T19:21:19.507Z,22.32
2022-09-07T19:26:24.792Z,22.21
2022-09-07T19:31:28.499Z,22.18
2022-09-07T19:36:33.385Z,22.57
2022-09-07T19:41:40.932Z,22.66
2022-09-07T19:46:44.694Z,22.60
2022-09-07T19:51:49.392Z,22.53
2022-09-07T19:56:53.411Z,22.50
2022-09-07T20:01:56.088Z,22.47
2022-09-07T20:06:58.703Z,22.37
2022-09-07T20:12:03.811Z,22.31
2022-09-07T20:17:06.541Z,22.27
2022-09-07T20:22:09.125Z,22.18
2022-09-07T20:27:13.024Z,22.05
2022-09-07T20:32:16.746Z,21.91
2022-09-07T20:37:19.347Z,21.79
2022-09-07T20:42:23.276Z,21.69
2022-09-07T20:47:25.937Z,21.63
2022-09-07T20:52:28.559Z,21.56
2022-09-07T20:57:32.538Z,21.49
2022-09-07T21:02:35.824Z,21.43
2022-09-07T21:07:38.792Z,21.32
2022-09-07T21:12:42.868Z,21.23
2022-09-07T21:17:45.496Z,21.12
2022-09-07T21:22:48.202Z,20.98
2022-09-07T21:27:52.159Z,20.81
2022-09-07T21:32:54.732Z,20.76
2022-09-07T21:37:57.373Z,20.73
2022-09-07T21:43:01.305Z,20.54
2022-09-07T21:48:04.292Z,20.32
2022-09-07T21:53:06.923Z,20.28
2022-09-07T21:58:10.868Z,20.30
2022-09-07T22:03:13.646Z,20.35
2022-09-07T22:08:17.106Z,20.37
2022-09-07T22:13:21.084Z,20.34
2022-09-07T22:18:23.656Z,20.20
2022-09-07T22:23:26.252Z,20.07
2022-09-07T22:28:31.288Z,20.11
2022-09-07T22:33:33.967Z,20.13
2022-09-07T22:38:36.726Z,20.07
2022-09-07T22:43:41.305Z,19.97
2022-09-07T22:48:44.390Z,19.87
2022-09-07T22:53:46.991Z,19.81
2022-09-07T22:58:52.463Z,19.80
2022-09-07T23:03:56.154Z,19.82
2022-09-07T23:09:00.287Z,19.89
2022-09-07T23:14:06.531Z,19.92
2022-09-07T23:19:10.577Z,19.92
2022-09-07T23:24:14.438Z,19.84
2022-09-07T23:29:20.783Z,19.64
2022-09-07T23:34:23.368Z,19.53
2022-09-07T23:39:26.088Z,19.45
2022-09-07T23:44:30.970Z,19.36
2022-09-07T23:49:33.929Z,19.26
2022-09-07T23:54:36.759Z,19.22
2022-09-07T23:59:41.093Z,19.22
